Time;durP1;ratioP1;P1;durP2;ratioP2;P2;SDS_P1;SDS_P2;PMS_P1;PMS_P2;Temp;Humidity;BMP_temperature;BMP_pressure;BME280_temperature;BME280_humidity;BME280_pressure;Samples;Min_cycle;Max_cycle;Signal;HPM_P1;HPM_P2
2023/05/08 00:02:16;;;;;;;5.80;3.97;;;;;;;17.14;68.93;101946.81;5058515;28;20372;-61
2023/05/08 00:04:44;;;;;;;5.75;4.05;;;;;;;17.14;68.95;101946.81;5059869;28;20056;-60
2023/05/08 00:07:12;;;;;;;5.40;3.83;;;;;;;17.12;68.87;101952.47;5056707;28;20059;-60
2023/05/08 00:09:41;;;;;;;6.72;4.45;;;;;;;17.09;68.91;101944.81;5056717;28;20053;-61
2023/05/08 00:12:09;;;;;;;6.10;3.80;;;;;;;17.12;68.62;101946.22;5061279;28;20426;-61
2023/05/08 00:14:36;;;;;;;5.18;3.72;;;;;;;17.12;68.75;101948.94;5049947;28;20466;-61
2023/05/08 00:17:04;;;;;;;7.03;4.95;;;;;;;17.11;68.96;101950.00;5060792;28;20044;-61
2023/05/08 00:19:32;;;;;;;6.10;4.60;;;;;;;17.12;68.74;101951.66;5045006;28;20064;-61
2023/05/08 00:22:00;;;;;;;5.53;4.85;;;;;;;17.10;68.89;101951.06;5057806;28;20048;-60
2023/05/08 00:24:28;;;;;;;4.68;3.90;;;;;;;17.08;68.85;101950.47;5056501;28;20109;-61
2023/05/08 00:26:57;;;;;;;5.40;4.65;;;;;;;17.07;68.99;101949.66;5055858;28;20051;-61
2023/05/08 00:29:25;;;;;;;6.28;4.60;;;;;;;17.07;68.98;101943.38;5050142;28;20076;-61
2023/05/08 00:31:53;;;;;;;6.43;4.03;;;;;;;17.07;68.66;101948.81;5054628;28;20099;-60
2023/05/08 00:34:21;;;;;;;6.70;4.03;;;;;;;17.06;68.61;101948.00;5049945;28;20067;-59
2023/05/08 00:36:49;;;;;;;5.90;4.57;;;;;;;17.05;68.75;101946.34;5061211;28;20120;-60
2023/05/08 00:39:17;;;;;;;6.97;4.60;;;;;;;17.05;68.78;101950.94;5050800;28;20041;-48
2023/05/08 00:41:45;;;;;;;5.18;4.47;;;;;;;17.05;68.61;101957.22;5054641;28;20117;-60
2023/05/08 00:44:14;;;;;;;6.75;4.35;;;;;;;17.05;68.81;101959.09;5050896;28;20131;-54
2023/05/08 00:46:44;;;;;;;5.25;4.18;;;;;;;17.03;68.43;101956.63;5062039;28;20047;-61
2023/05/08 00:49:13;;;;;;;5.65;4.40;;;;;;;17.02;68.45;101949.53;5058193;28;20056;-59
2023/05/08 00:51:42;;;;;;;5.32;4.28;;;;;;;17.02;68.67;101954.13;5045744;28;20050;-60
2023/05/08 00:54:10;;;;;;;6.68;5.55;;;;;;;17.01;69.01;101952.47;5060209;28;20080;-59
2023/05/08 00:56:38;;;;;;;8.25;5.35;;;;;;;16.99;69.11;101950.00;5056608;28;20053;-61
2023/05/08 00:59:11;;;;;;;6.13;5.18;;;;;;;16.98;69.23;101950.25;5059028;28;20104;-60
2023/05/08 01:01:41;;;;;;;8.30;5.28;;;;;;;16.89;69.01;101928.06;5058429;28;20474;-61
2023/05/08 01:04:09;;;;;;;6.43;5.07;;;;;;;16.96;68.76;101942.34;5060119;28;20049;-60
2023/05/08 01:06:37;;;;;;;8.30;4.95;;;;;;;16.95;69.14;101942.56;5061773;28;20119;-60
2023/05/08 01:09:06;;;;;;;8.02;4.80;;;;;;;16.91;69.03;101940.34;5061672;28;20055;-61
2023/05/08 01:11:41;;;;;;;6.57;4.75;;;;;;;16.92;69.04;101939.25;5052750;28;20055;-58
2023/05/08 01:14:16;;;;;;;6.95;4.55;;;;;;;16.92;68.72;101941.97;5056957;28;20077;-60
2023/05/08 01:16:56;;;;;;;6.43;4.53;;;;;;;16.91;68.96;101947.66;5044548;28;20447;-61
2023/05/08 01:19:52;;;;;;;7.25;4.35;;;;;;;16.90;69.01;101940.56;5046808;28;20105;-60
2023/05/08 01:22:33;;;;;;;4.90;3.78;;;;;;;16.89;68.80;101938.91;5051474;28;20048;-62
2023/05/08 01:25:40;;;;;;;5.60;4.30;;;;;;;16.88;68.97;101932.66;5046659;28;20052;-61
2023/05/08 01:28:30;;;;;;;6.30;4.22;;;;;;;16.88;68.94;101932.66;5053737;28;20088;-61
2023/05/08 01:31:05;;;;;;;5.57;4.40;;;;;;;16.88;69.11;101939.97;5053838;28;20105;-61
2023/05/08 01:33:41;;;;;;;7.95;5.55;;;;;;;16.86;69.15;101937.50;5059914;28;20053;-60
2023/05/08 01:36:20;;;;;;;7.80;5.17;;;;;;;16.85;69.04;101944.00;5053738;28;20052;-60
2023/05/08 01:38:56;;;;;;;7.32;4.70;;;;;;;16.83;68.93;101932.53;5058596;28;20041;-56
2023/05/08 01:41:27;;;;;;;4.57;3.67;;;;;;;16.84;68.90;101939.63;5050748;28;20046;-61
2023/05/08 01:44:06;;;;;;;5.45;4.50;;;;;;;16.83;68.93;101942.56;5051932;28;20169;-60
2023/05/08 01:46:33;;;;;;;6.53;4.18;;;;;;;16.83;68.79;101937.16;5052757;28;20048;-59
2023/05/08 01:49:09;;;;;;;5.65;4.20;;;;;;;16.83;68.85;101939.88;5054644;28;20345;-59
2023/05/08 01:51:49;;;;;;;5.47;4.00;;;;;;;16.83;68.88;101940.69;5053114;28;20043;-59
2023/05/08 01:54:20;;;;;;;5.60;3.55;;;;;;;16.81;68.87;101940.09;5055712;28;20064;-60
2023/05/08 01:56:50;;;;;;;6.22;4.13;;;;;;;16.83;68.64;101942.56;5044065;28;20104;-60
2023/05/08 01:59:22;;;;;;;7.47;4.05;;;;;;;16.81;68.69;101942.81;5049668;28;20160;-60
2023/05/08 02:01:53;;;;;;;7.93;3.83;;;;;;;16.81;68.60;101942.81;5051086;28;20049;-59
2023/05/08 02:04:23;;;;;;;7.03;4.10;;;;;;;16.80;68.60;101943.88;5048283;28;20499;-61
2023/05/08 02:06:52;;;;;;;4.82;4.00;;;;;;;16.80;68.80;101938.44;5056668;28;20133;-60
2023/05/08 02:09:23;;;;;;;6.65;4.28;;;;;;;16.79;68.70;101942.22;5054355;28;20072;-59
2023/05/08 02:11:53;;;;;;;7.68;4.63;;;;;;;16.73;68.92;101939.63;5044833;28;20049;-58
2023/05/08 02:14:22;;;;;;;5.88;4.55;;;;;;;16.70;68.92;101937.38;5054621;28;20045;-61
2023/05/08 02:16:52;;;;;;;6.93;3.70;;;;;;;16.78;68.88;101953.31;5047725;28;20113;-61
2023/05/08 02:19:24;;;;;;;9.10;5.05;;;;;;;16.78;68.96;101950.59;5058502;28;20280;-60
2023/05/08 02:21:55;;;;;;;5.18;4.07;;;;;;;16.76;68.82;101958.97;5051604;28;20486;-61
2023/05/08 02:24:24;;;;;;;5.03;4.22;;;;;;;16.75;68.81;101962.75;5054755;28;20138;-61
2023/05/08 02:26:53;;;;;;;6.15;4.10;;;;;;;16.75;68.90;101957.34;5057466;28;20135;-61
2023/05/08 02:29:23;;;;;;;5.60;4.38;;;;;;;16.67;68.68;101944.09;5050979;28;20103;-60
2023/05/08 02:31:53;;;;;;;5.70;4.53;;;;;;;16.74;68.75;101952.97;5058017;28;20045;-61
2023/05/08 02:34:23;;;;;;;7.93;4.47;;;;;;;16.73;68.68;101951.31;5049658;28;20045;-60
2023/05/08 02:36:53;;;;;;;5.47;3.90;;;;;;;16.73;68.85;101954.03;5048570;28;20045;-55
2023/05/08 02:39:24;;;;;;;5.20;3.88;;;;;;;16.73;68.86;101954.03;5053228;28;20064;-60
2023/05/08 02:41:52;;;;;;;6.82;4.93;;;;;;;16.72;68.95;101962.41;5055152;28;20052;-61
2023/05/08 02:44:20;;;;;;;5.70;4.45;;;;;;;16.70;68.71;101957.22;5059595;28;20108;-61
2023/05/08 02:46:56;;;;;;;7.55;4.18;;;;;;;16.69;68.75;101958.28;5055886;28;20135;-60
2023/05/08 02:49:31;;;;;;;6.75;4.18;;;;;;;16.68;68.77;101951.19;5052507;28;20041;-60
2023/05/08 02:52:06;;;;;;;5.03;4.13;;;;;;;16.68;68.89;101953.91;5056083;28;20044;-57
2023/05/08 02:54:42;;;;;;;7.82;4.47;;;;;;;16.69;69.05;101960.16;5058156;28;20077;-60
2023/05/08 02:57:18;;;;;;;5.85;4.55;;;;;;;16.67;69.06;101957.69;5055300;28;20116;-61
2023/05/08 02:59:56;;;;;;;5.75;4.40;;;;;;;16.66;68.93;101956.03;5057391;28;20048;-57
2023/05/08 03:02:32;;;;;;;5.88;4.55;;;;;;;16.65;68.94;101953.56;5053676;28;20045;-59
2023/05/08 03:05:06;;;;;;;5.78;4.32;;;;;;;16.65;68.91;101957.09;5053278;28;20527;-60
2023/05/08 03:07:38;;;;;;;6.40;4.82;;;;;;;16.64;69.11;101952.69;5054173;28;20064;-60
2023/05/08 03:10:11;;;;;;;7.05;4.95;;;;;;;16.63;69.01;101958.34;5052675;28;20044;-51
2023/05/08 03:12:43;;;;;;;5.03;4.10;;;;;;;16.62;68.95;101956.69;5049945;28;20088;-59
2023/05/08 03:15:22;;;;;;;5.50;4.28;;;;;;;16.61;68.97;101950.44;5056992;28;20565;-60
2023/05/08 03:17:54;;;;;;;6.43;4.28;;;;;;;16.60;68.95;101949.63;5052734;28;20056;-59
2023/05/08 03:20:26;;;;;;;5.45;4.18;;;;;;;16.59;69.11;101947.97;5055650;28;20069;-53
2023/05/08 03:22:55;;;;;;;5.55;4.63;;;;;;;16.60;68.94;101946.06;5056819;28;20101;-60
2023/05/08 03:25:24;;;;;;;5.88;4.85;;;;;;;16.58;69.20;101953.63;5054016;28;20085;-60
2023/05/08 03:27:53;;;;;;;7.28;4.75;;;;;;;16.58;69.08;101950.91;5056786;28;20045;-61
2023/05/08 03:30:22;;;;;;;6.00;4.88;;;;;;;16.56;69.08;101945.72;5055098;28;20068;-60
2023/05/08 03:32:52;;;;;;;7.85;5.32;;;;;;;16.56;68.83;101948.44;5056228;28;20074;-60
2023/05/08 03:35:22;;;;;;;7.53;4.93;;;;;;;16.56;68.88;101950.31;5051393;28;20050;-54
2023/05/08 03:37:52;;;;;;;6.18;4.95;;;;;;;16.56;68.92;101942.19;5049825;28;20430;-59
2023/05/08 03:40:20;;;;;;;5.65;4.85;;;;;;;16.55;69.12;101948.66;5052342;28;20106;-59
2023/05/08 03:42:49;;;;;;;7.10;5.15;;;;;;;16.56;68.89;101942.19;5051949;28;20045;-60
2023/05/08 03:45:19;;;;;;;6.45;5.10;;;;;;;16.55;68.96;101938.63;5048605;28;20589;-59
2023/05/08 03:47:48;;;;;;;6.13;5.20;;;;;;;16.54;68.93;101947.03;5063551;28;20048;-60
2023/05/08 03:50:16;;;;;;;6.60;5.07;;;;;;;16.54;69.00;101947.84;5048143;28;20251;-61
2023/05/08 03:52:44;;;;;;;7.07;5.35;;;;;;;16.53;68.86;101938.06;5056882;28;20096;-60
2023/05/08 03:55:13;;;;;;;7.57;5.88;;;;;;;16.52;68.92;101936.41;5052553;28;20072;-60
2023/05/08 03:57:50;;;;;;;6.10;5.00;;;;;;;16.52;68.93;101936.41;5055978;28;20718;-60
2023/05/08 04:00:28;;;;;;;7.20;5.55;;;;;;;16.52;68.97;101949.13;5051861;28;20505;-59
2023/05/08 04:03:08;;;;;;;7.13;5.32;;;;;;;16.51;68.86;101947.50;5057639;28;20041;-62
2023/05/08 04:05:40;;;;;;;7.10;5.20;;;;;;;16.49;68.87;101939.59;5051889;28;20045;-60
2023/05/08 04:08:16;;;;;;;6.65;5.88;;;;;;;16.49;68.96;101942.28;5045716;28;20270;-60
2023/05/08 04:10:49;;;;;;;6.65;5.68;;;;;;;16.50;68.86;101943.13;5042826;28;20059;-58
2023/05/08 04:13:22;;;;;;;8.93;6.22;;;;;;;16.48;68.96;101946.06;5056526;28;20075;-60
2023/05/08 04:15:53;;;;;;;6.10;5.13;;;;;;;16.47;68.74;101954.44;5053811;28;20557;-60
2023/05/08 04:18:28;;;;;;;6.75;5.75;;;;;;;16.48;68.76;101956.09;5052977;28;20055;-61
2023/05/08 04:20:57;;;;;;;7.43;5.40;;;;;;;16.47;68.90;101952.56;5054626;28;20042;-59
2023/05/08 04:23:28;;;;;;;7.90;5.63;;;;;;;16.46;69.00;101953.63;5045828;28;20346;-60
2023/05/08 04:25:59;;;;;;;6.57;5.88;;;;;;;16.44;69.03;101953.03;5058529;28;20067;-59
2023/05/08 04:28:28;;;;;;;6.95;6.00;;;;;;;16.43;69.13;101951.38;5062229;28;20144;-60
2023/05/08 04:30:57;;;;;;;7.90;6.18;;;;;;;16.43;68.98;101953.25;5054083;28;20183;-60
2023/05/08 04:33:25;;;;;;;8.52;6.25;;;;;;;16.43;69.07;101964.13;5055836;28;20284;-60
2023/05/08 04:35:54;;;;;;;9.45;6.45;;;;;;;16.41;69.31;101958.91;5053410;28;20109;-60
2023/05/08 04:38:21;;;;;;;7.35;6.50;;;;;;;16.42;69.25;101970.59;5049189;28;20049;-60
2023/05/08 04:40:49;;;;;;;6.88;6.18;;;;;;;16.40;69.11;101972.72;5046067;28;20506;-60
2023/05/08 04:43:19;;;;;;;7.55;6.55;;;;;;;16.32;69.30;101960.31;5059799;28;20145;-60
2023/05/08 04:45:47;;;;;;;8.50;7.45;;;;;;;16.39;69.11;101973.78;5053243;28;20037;-59
2023/05/08 04:48:15;;;;;;;7.13;6.30;;;;;;;16.39;69.27;101976.50;5053540;28;20053;-61
2023/05/08 04:50:42;;;;;;;7.32;6.22;;;;;;;16.37;69.25;101976.72;5052148;28;20041;-60
2023/05/08 04:53:11;;;;;;;7.22;5.50;;;;;;;16.37;69.19;101982.16;5053565;28;20081;-60
2023/05/08 04:55:38;;;;;;;7.05;5.97;;;;;;;16.36;69.08;101980.50;5050615;28;20073;-60
2023/05/08 04:58:06;;;;;;;7.75;6.25;;;;;;;16.34;69.38;101988.03;5060921;28;20136;-58
2023/05/08 05:00:36;;;;;;;8.77;6.47;;;;;;;16.36;69.35;101987.81;5054967;28;20041;-61
2023/05/08 05:03:04;;;;;;;6.30;5.55;;;;;;;16.35;69.22;101986.16;5060556;28;20053;-61
2023/05/08 05:05:32;;;;;;;6.47;5.60;;;;;;;16.35;69.28;101983.44;5059318;28;20045;-62
2023/05/08 05:08:00;;;;;;;7.18;5.93;;;;;;;16.35;69.17;101997.00;5051725;28;20562;-61
2023/05/08 05:10:27;;;;;;;7.13;5.88;;;;;;;16.34;69.18;101989.94;5054566;28;20097;-59
2023/05/08 05:12:55;;;;;;;8.90;5.80;;;;;;;16.33;69.24;101999.94;5052264;28;20135;-61
2023/05/08 05:15:23;;;;;;;7.53;6.60;;;;;;;16.32;69.40;101998.28;5060109;28;20045;-61
2023/05/08 05:17:52;;;;;;;7.70;6.63;;;;;;;16.32;69.38;102005.59;5057895;28;20144;-60
2023/05/08 05:20:20;;;;;;;7.10;6.28;;;;;;;16.33;69.46;102007.25;5057739;28;20084;-55
2023/05/08 05:22:48;;;;;;;6.80;5.57;;;;;;;16.31;69.31;102004.78;5056738;28;20049;-62
2023/05/08 05:25:16;;;;;;;7.55;6.13;;;;;;;16.32;69.61;102011.03;5058137;28;20048;-63
2023/05/08 05:27:44;;;;;;;7.50;6.03;;;;;;;16.31;69.57;102012.09;5053199;28;20136;-64
2023/05/08 05:30:12;;;;;;;7.28;6.07;;;;;;;16.31;69.48;102017.53;5046430;28;20049;-63
2023/05/08 05:32:41;;;;;;;8.10;6.60;;;;;;;16.31;69.58;102012.09;5055231;28;20049;-62
2023/05/08 05:35:10;;;;;;;6.07;5.22;;;;;;;16.31;69.44;102012.91;5051577;28;20048;-64
2023/05/08 05:37:39;;;;;;;7.10;5.88;;;;;;;16.30;69.62;102022.13;5044686;28;20045;-65
2023/05/08 05:40:08;;;;;;;6.28;5.68;;;;;;;16.30;69.56;102022.13;4003286;28;10000933;-62
2023/05/08 05:42:36;;;;;;;7.85;6.07;;;;;;;16.30;69.64;102018.56;5054394;28;20049;-64
2023/05/08 05:45:05;;;;;;;6.65;5.88;;;;;;;16.29;69.58;102017.75;5060891;28;20060;-62
2023/05/08 05:47:32;;;;;;;9.05;5.75;;;;;;;16.30;69.36;102021.28;5058871;28;20048;-65
2023/05/08 05:50:00;;;;;;;8.75;6.47;;;;;;;16.29;69.48;102031.31;5052630;28;20053;-65
2023/05/08 05:52:30;;;;;;;7.70;6.20;;;;;;;16.30;69.67;102024.84;5054300;28;20075;-63
2023/05/08 05:54:58;;;;;;;7.25;6.10;;;;;;;16.30;69.60;102021.28;5054698;28;20040;-61
2023/05/08 05:57:26;;;;;;;7.65;5.82;;;;;;;16.21;69.57;102016.19;5045321;28;20061;-62
2023/05/08 05:59:53;;;;;;;9.40;6.35;;;;;;;16.28;69.35;102030.50;5054845;28;20590;-61
2023/05/08 06:02:21;;;;;;;7.00;6.03;;;;;;;16.28;69.68;102024.22;5058883;28;20059;-60
2023/05/08 06:04:51;;;;;;;7.10;5.90;;;;;;;16.30;69.80;102041.09;5050068;28;20209;-62
2023/05/08 06:07:19;;;;;;;7.70;6.68;;;;;;;16.30;69.61;102038.41;5056444;28;20045;-62
2023/05/08 06:09:50;;;;;;;6.32;5.70;;;;;;;16.29;69.43;102036.75;5046135;28;20171;-61
2023/05/08 06:12:18;;;;;;;7.85;6.38;;;;;;;16.30;69.48;102029.44;5044261;28;20111;-63
2023/05/08 06:14:46;;;;;;;12.07;10.02;;;;;;;16.30;70.24;102040.28;5045638;28;20071;-60
2023/05/08 06:17:13;;;;;;;19.85;13.30;;;;;;;16.31;72.69;102041.94;5043934;28;20053;-62
2023/05/08 06:19:41;;;;;;;14.63;9.55;;;;;;;16.30;72.05;102037.56;5057898;28;20205;-60
2023/05/08 06:22:09;;;;;;;10.48;9.38;;;;;;;16.28;71.50;102035.91;5060297;28;20510;-62
2023/05/08 06:24:37;;;;;;;12.98;10.15;;;;;;;16.28;71.12;102030.50;5057101;28;20049;-69
2023/05/08 06:27:06;;;;;;;13.50;10.32;;;;;;;16.30;70.98;102034.84;5057142;28;20063;-62
2023/05/08 06:29:34;;;;;;;11.40;9.63;;;;;;;16.29;70.97;102034.03;5059885;28;20049;-65
2023/05/08 06:32:02;;;;;;;11.43;10.20;;;;;;;16.30;71.09;102038.41;5053763;28;20044;-65
2023/05/08 06:34:30;;;;;;;11.38;9.98;;;;;;;16.30;71.09;102032.97;5054482;28;20137;-61
2023/05/08 06:36:58;;;;;;;10.90;9.65;;;;;;;16.31;70.91;102044.66;5057899;28;20056;-62
2023/05/08 06:39:26;;;;;;;12.98;9.32;;;;;;;16.31;70.88;102039.22;5056127;28;20057;-62
2023/05/08 06:41:54;;;;;;;11.57;9.43;;;;;;;16.31;70.95;102033.78;5052735;28;20053;-62
2023/05/08 06:44:23;;;;;;;11.32;10.13;;;;;;;16.30;71.08;102041.09;5060450;28;20053;-62
2023/05/08 06:46:50;;;;;;;11.93;10.23;;;;;;;16.28;71.11;102045.94;5054138;28;20045;-61
2023/05/08 06:49:19;;;;;;;12.07;10.77;;;;;;;16.30;71.03;102053.84;5059255;28;20049;-61
2023/05/08 06:51:47;;;;;;;12.60;11.30;;;;;;;16.30;71.37;102051.97;5058531;28;20037;-61
2023/05/08 06:54:15;;;;;;;12.27;10.98;;;;;;;16.30;71.30;102045.72;5059456;28;20128;-61
2023/05/08 06:56:43;;;;;;;12.88;10.63;;;;;;;16.31;71.31;102055.50;5054941;28;20045;-61
2023/05/08 06:59:10;;;;;;;12.07;10.77;;;;;;;16.30;71.13;102059.28;5058002;28;20154;-62
2023/05/08 07:01:40;;;;;;;11.23;10.02;;;;;;;16.31;71.35;102060.94;5059353;28;20084;-63
2023/05/08 07:04:08;;;;;;;13.98;10.95;;;;;;;16.31;71.32;102064.47;5057112;28;20067;-62
2023/05/08 07:06:36;;;;;;;12.45;10.82;;;;;;;16.31;71.43;102064.47;5051520;28;20054;-61
2023/05/08 07:09:04;;;;;;;13.82;12.40;;;;;;;16.31;71.43;102063.63;5056893;28;20049;-62
2023/05/08 07:11:32;;;;;;;16.23;13.50;;;;;;;16.31;71.81;102069.06;5047494;28;20403;-60
2023/05/08 07:14:00;;;;;;;14.45;12.65;;;;;;;16.30;71.78;102070.13;5057602;28;20053;-62
2023/05/08 07:16:27;;;;;;;14.88;13.38;;;;;;;16.31;71.92;102061.75;5047127;28;20055;-60
2023/05/08 07:18:57;;;;;;;16.48;14.77;;;;;;;16.31;72.00;102063.63;5053979;28;20122;-62
2023/05/08 07:21:25;;;;;;;16.23;14.50;;;;;;;16.31;72.17;102069.06;5053953;28;20136;-61
2023/05/08 07:23:53;;;;;;;16.95;15.15;;;;;;;16.31;72.37;102066.34;5057939;28;20132;-62
2023/05/08 07:26:21;;;;;;;17.25;14.50;;;;;;;16.31;72.08;102066.34;5057704;28;20072;-62
2023/05/08 07:28:52;;;;;;;15.60;13.95;;;;;;;16.30;71.98;102062.81;5051974;28;20048;-62
2023/05/08 07:31:20;;;;;;;18.13;15.90;;;;;;;16.31;72.44;102066.34;5051300;28;20094;-58
2023/05/08 07:33:48;;;;;;;15.95;14.15;;;;;;;16.31;71.86;102064.47;5058905;28;20134;-65
2023/05/08 07:36:17;;;;;;;16.08;14.35;;;;;;;16.32;72.04;102068.84;5055815;28;20112;-66
2023/05/08 07:38:45;;;;;;;17.70;15.25;;;;;;;16.32;72.02;102066.13;5053157;28;20415;-61
2023/05/08 07:41:13;;;;;;;17.75;14.82;;;;;;;16.33;71.99;102050.66;5056444;28;20037;-62
2023/05/08 07:43:42;;;;;;;16.20;13.93;;;;;;;16.34;71.73;102063.19;5059340;28;20083;-62
2023/05/08 07:46:16;;;;;;;16.67;14.90;;;;;;;16.33;71.86;102059.63;5051280;28;20376;-60
2023/05/08 07:48:44;;;;;;;17.25;13.85;;;;;;;16.34;71.92;102055.03;5057269;28;20083;-62
2023/05/08 07:51:13;;;;;;;15.90;14.20;;;;;;;16.33;71.57;102053.38;5057155;28;20052;-51
2023/05/08 07:53:42;;;;;;;14.55;13.07;;;;;;;16.35;71.78;102059.41;5057422;28;20049;-61
2023/05/08 07:56:10;;;;;;;17.60;14.82;;;;;;;16.36;71.95;102058.34;5059625;28;20492;-60
2023/05/08 07:58:38;;;;;;;17.88;15.23;;;;;;;16.36;71.81;102056.47;5051659;28;20076;-61
2023/05/08 08:01:06;;;;;;;16.67;14.45;;;;;;;16.37;72.02;102068.97;5063220;28;20208;-60
2023/05/08 08:03:33;;;;;;;16.65;14.95;;;;;;;16.36;71.95;102059.19;5058822;28;20103;-60
2023/05/08 08:06:02;;;;;;;17.58;14.38;;;;;;;16.36;72.06;102064.59;5053683;28;20045;-60
2023/05/08 08:08:29;;;;;;;16.08;14.10;;;;;;;16.38;71.86;102072.50;5051932;28;20068;-61
2023/05/08 08:10:59;;;;;;;19.83;17.38;;;;;;;16.38;72.07;102064.38;5058773;28;20517;-60
2023/05/08 08:13:30;;;;;;;17.05;15.23;;;;;;;16.38;71.94;102058.94;5044478;28;20064;-61
2023/05/08 08:15:58;;;;;;;17.27;15.25;;;;;;;16.38;72.22;102057.06;5050787;28;20053;-60
2023/05/08 08:18:26;;;;;;;17.90;15.43;;;;;;;16.39;72.09;102060.59;5064048;28;20104;-61
2023/05/08 08:20:54;;;;;;;16.30;13.55;;;;;;;16.40;71.74;102059.53;5057514;28;20045;-60
2023/05/08 08:23:22;;;;;;;16.95;15.13;;;;;;;16.40;72.04;102065.78;5063949;28;20041;-60
2023/05/08 08:25:50;;;;;;;18.52;16.02;;;;;;;16.41;71.89;102067.44;5050441;28;20501;-60
2023/05/08 08:28:19;;;;;;;16.98;13.73;;;;;;;16.41;71.71;102062.03;5060460;28;20053;-59
2023/05/08 08:30:47;;;;;;;21.13;15.70;;;;;;;16.41;71.96;102059.31;5061787;28;20071;-60
2023/05/08 08:33:15;;;;;;;20.08;15.85;;;;;;;16.42;71.94;102052.81;5052714;28;20045;-61
2023/05/08 08:35:45;;;;;;;18.35;16.42;;;;;;;16.42;71.87;102055.53;5063392;28;20056;-60
2023/05/08 08:38:13;;;;;;;17.15;14.60;;;;;;;16.44;71.94;102052.59;5061060;28;20048;-60
2023/05/08 08:40:42;;;;;;;17.67;15.55;;;;;;;16.44;71.86;102049.88;5060356;28;20049;-60
2023/05/08 08:43:10;;;;;;;20.55;17.40;;;;;;;16.46;72.10;102054.03;5060670;28;20041;-60
2023/05/08 08:45:39;;;;;;;18.98;16.95;;;;;;;16.36;72.01;102037.47;5058893;28;20392;-60
2023/05/08 08:48:11;;;;;;;18.08;15.82;;;;;;;16.47;72.23;102054.84;5061955;28;20049;-60
2023/05/08 08:50:42;;;;;;;18.48;15.20;;;;;;;16.48;72.23;102051.91;5059941;28;20061;-60
2023/05/08 08:53:15;;;;;;;21.80;18.15;;;;;;;16.49;72.49;102050.00;5061684;28;20067;-60
2023/05/08 08:55:47;;;;;;;23.10;18.05;;;;;;;16.51;72.66;102050.63;5056887;28;20426;-60
2023/05/08 08:58:21;;;;;;;27.17;17.58;;;;;;;16.50;72.21;102041.63;5054944;28;20067;-60
2023/05/08 09:00:53;;;;;;;20.75;16.90;;;;;;;16.52;72.29;102044.13;5056383;28;20072;-60
2023/05/08 09:03:21;;;;;;;17.48;13.80;;;;;;;16.53;72.02;102043.88;5055239;28;20068;-60
2023/05/08 09:05:49;;;;;;;19.10;17.02;;;;;;;16.55;71.94;102049.09;5062463;28;20045;-60
2023/05/08 09:08:18;;;;;;;28.67;23.48;;;;;;;16.56;72.98;102048.84;5048197;28;20081;-60
2023/05/08 09:10:46;;;;;;;27.00;22.48;;;;;;;16.57;73.04;102044.25;5058151;28;20371;-60
2023/05/08 09:13:14;;;;;;;26.63;21.63;;;;;;;16.58;72.88;102054.88;5055826;28;20073;-60
2023/05/08 09:15:45;;;;;;;23.83;20.23;;;;;;;16.59;72.82;102053.81;5054051;28;20291;-60
2023/05/08 09:18:14;;;;;;;21.15;18.50;;;;;;;16.59;72.56;102051.09;5060460;28;20055;-60
2023/05/08 09:20:44;;;;;;;22.08;18.33;;;;;;;16.62;72.47;102051.69;5049977;28;20169;-61
2023/05/08 09:23:13;;;;;;;23.27;17.73;;;;;;;16.63;72.43;102056.91;5054556;28;20042;-62
2023/05/08 09:25:42;;;;;;;21.88;16.33;;;;;;;16.64;72.39;102052.28;5063256;28;20076;-60
2023/05/08 09:28:17;;;;;;;17.80;15.10;;;;;;;16.66;72.19;102055.63;5060628;28;20049;-60
2023/05/08 09:30:52;;;;;;;16.67;14.63;;;;;;;16.67;72.02;102049.16;5056375;28;20076;-60
2023/05/08 09:33:24;;;;;;;13.43;12.02;;;;;;;16.62;71.71;102044.38;5053948;28;20102;-60
2023/05/08 09:35:53;;;;;;;16.13;11.75;;;;;;;16.71;71.43;102053.06;5057766;28;20045;-60
2023/05/08 09:38:35;;;;;;;17.42;15.25;;;;;;;16.70;71.83;102057.66;5060679;28;20112;-60
2023/05/08 09:41:08;;;;;;;21.58;17.65;;;;;;;16.74;71.74;102052.59;5058177;28;20051;-59
2023/05/08 09:43:36;;;;;;;24.90;19.85;;;;;;;16.73;71.98;102051.75;5057706;28;20049;-60
2023/05/08 09:46:21;;;;;;;21.80;17.58;;;;;;;16.74;71.81;102053.41;5062838;28;20092;-61
2023/05/08 09:48:52;;;;;;;24.17;18.88;;;;;;;16.75;72.00;102056.94;5060472;28;20075;-62
2023/05/08 09:51:20;;;;;;;21.70;17.70;;;;;;;16.77;71.83;102055.66;5056730;28;20044;-61
2023/05/08 09:53:51;;;;;;;20.02;15.60;;;;;;;16.77;71.62;102058.38;5059947;28;20084;-62
2023/05/08 09:56:35;;;;;;;18.90;14.10;;;;;;;16.79;71.36;102052.72;5059440;28;20119;-60
2023/05/08 09:59:05;;;;;;;18.77;14.15;;;;;;;16.81;71.33;102059.56;5056748;28;20044;-59
2023/05/08 10:01:35;;;;;;;20.90;16.10;;;;;;;16.82;71.35;102055.78;5060109;28;20045;-61
2023/05/08 10:04:04;;;;;;;16.98;14.38;;;;;;;16.83;71.18;102062.88;5056684;28;20044;-60
2023/05/08 10:06:35;;;;;;;20.80;16.50;;;;;;;16.85;71.43;102058.03;5056407;28;20045;-62
2023/05/08 10:09:20;;;;;;;22.08;16.50;;;;;;;16.86;71.29;102059.69;5056014;28;20128;-61
2023/05/08 10:11:51;;;;;;;23.67;17.25;;;;;;;16.88;71.22;102070.31;5056710;28;20128;-60
2023/05/08 10:14:21;;;;;;;27.52;18.85;;;;;;;16.88;71.52;102071.16;5054139;28;20053;-56
2023/05/08 10:16:51;;;;;;;36.65;22.02;;;;;;;16.88;71.61;102062.16;5054245;28;20041;-62
2023/05/08 10:19:22;;;;;;;33.78;21.10;;;;;;;16.88;71.62;102059.47;5058571;28;20057;-60
2023/05/08 10:21:51;;;;;;;34.20;20.83;;;;;;;16.87;71.47;102058.63;5058865;28;20277;-61
2023/05/08 10:24:20;;;;;;;34.38;19.63;;;;;;;16.88;71.58;102065.72;5059804;28;20055;-60
2023/05/08 10:26:57;;;;;;;30.13;20.63;;;;;;;16.88;71.51;102064.88;5049560;28;20041;-61
2023/05/08 10:29:41;;;;;;;29.88;19.33;;;;;;;16.88;71.56;102064.88;5053235;28;20041;-60
2023/05/08 10:32:10;;;;;;;28.30;17.70;;;;;;;16.88;71.46;102065.72;5058985;28;20108;-60
2023/05/08 10:34:41;;;;;;;29.98;20.63;;;;;;;16.89;71.39;102061.94;5057747;28;20043;-58
2023/05/08 10:37:10;;;;;;;34.47;22.67;;;;;;;16.90;71.48;102060.88;5054978;28;20044;-60
2023/05/08 10:39:40;;;;;;;30.23;21.00;;;;;;;16.90;71.68;102060.88;5058771;28;20857;-59
2023/05/08 10:42:08;;;;;;;32.35;22.30;;;;;;;16.92;71.66;102057.94;5057106;28;20049;-60
2023/05/08 10:44:36;;;;;;;40.15;23.50;;;;;;;16.91;71.62;102059.81;5055160;28;20041;-55
2023/05/08 10:47:15;;;;;;;40.03;26.25;;;;;;;16.94;71.75;102063.13;5058035;28;20072;-60
2023/05/08 10:49:51;;;;;;;35.80;25.52;;;;;;;16.94;71.92;102058.53;5056712;28;20037;-59
2023/05/08 10:52:24;;;;;;;;;;;;;;;16.95;72.22;102059.34;5055556;28;20139;-60
2023/05/08 10:55:18;;;;;;;35.75;25.48;;;;;;;16.95;72.09;102054.75;5058424;28;19921;-60
2023/05/08 10:58:29;;;;;;;41.33;25.73;;;;;;;16.95;72.01;102051.19;5055318;28;20106;-60
2023/05/08 11:01:14;;;;;;;50.10;26.83;;;;;;;16.96;72.12;102050.97;4994500;28;20054;-60
2023/05/08 11:03:49;;;;;;;46.85;26.27;;;;;;;16.98;71.88;102048.84;4994745;28;20146;-61
2023/05/08 11:06:42;;;;;;;34.63;24.27;;;;;;;16.99;71.82;102050.50;4987937;28;20055;-62
2023/05/08 11:09:15;;;;;;;35.70;25.05;;;;;;;17.00;71.51;102045.88;4991438;28;20082;-63
2023/05/08 11:11:54;;;;;;;35.30;23.33;;;;;;;17.03;71.57;102045.41;4997413;28;20069;-58
2023/05/08 11:14:23;;;;;;;37.72;24.35;;;;;;;17.02;71.67;102036.44;4990786;28;20071;-60
2023/05/08 11:17:07;;;;;;;37.00;25.38;;;;;;;17.07;71.46;102046.59;4989264;28;20065;-59
2023/05/08 11:19:37;;;;;;;33.50;23.60;;;;;;;17.08;71.34;102042.81;4998108;28;20121;-60
2023/05/08 11:22:23;;;;;;;33.60;23.35;;;;;;;17.09;71.41;102039.03;4985735;28;20411;-60
2023/05/08 11:25:03;;;;;;;32.17;23.25;;;;;;;17.09;71.32;102026.28;4982894;28;20050;-60
2023/05/08 11:27:36;;;;;;;26.88;19.23;;;;;;;17.12;71.08;102030.41;5000071;28;20103;-66
2023/05/08 11:30:23;;;;;;;30.65;20.52;;;;;;;17.14;71.19;102025.59;4997428;28;20054;-60
2023/05/08 11:32:59;;;;;;;33.58;22.05;;;;;;;17.17;71.08;102016.97;5051191;28;20063;-59
2023/05/08 11:35:51;;;;;;;28.80;21.00;;;;;;;17.18;70.88;102019.44;5062361;28;20041;-59
2023/05/08 11:38:39;;;;;;;34.08;22.25;;;;;;;17.20;71.12;102019.19;5059245;28;20068;-60